Time;durP1;ratioP1;P1;durP2;ratioP2;P2;SDS_P1;SDS_P2;PMS_P1;PMS_P2;Temp;Humidity;BMP_temperature;BMP_pressure;BME280_temperature;BME280_humidity;BME280_pressure;Samples;Min_cycle;Max_cycle;Signal;HPM_P1;HPM_P2
2022/11/22 00:02:18;;;;;;;17.03;7.23;;;;;;;-145.18;100.00;46691.66;5032833;28;20482;-76
2022/11/22 00:04:43;;;;;;;16.03;6.87;;;;;;;-145.18;100.00;46699.47;5032804;28;20619;-76
2022/11/22 00:07:08;;;;;;;22.33;7.53;;;;;;;-145.18;100.00;46695.56;5032712;28;20490;-77
2022/11/22 00:09:34;;;;;;;18.37;8.10;;;;;;;-145.18;100.00;46701.41;5033139;28;20374;-77
2022/11/22 00:11:59;;;;;;;13.43;6.80;;;;;;;-145.18;100.00;46697.50;5015108;28;20108;-76
2022/11/22 00:14:25;;;;;;;22.37;7.10;;;;;;;-145.18;100.00;46691.66;5033054;28;20061;-77
2022/11/22 00:16:50;;;;;;;14.13;8.40;;;;;;;-145.18;100.00;46683.84;5032547;28;20486;-77
2022/11/22 00:19:16;;;;;;;13.13;6.80;;;;;;;-145.18;100.00;46693.59;5032968;28;20037;-77
2022/11/22 00:21:41;;;;;;;14.47;7.23;;;;;;;-145.18;100.00;46693.59;5014776;28;20387;-77
2022/11/22 00:24:07;;;;;;;20.40;8.63;;;;;;;-145.18;100.00;46693.59;5032902;28;20164;-77
2022/11/22 00:26:32;;;;;;;20.67;8.20;;;;;;;-145.18;100.00;46699.47;5032469;28;20018;-77
2022/11/22 00:28:57;;;;;;;17.90;8.47;;;;;;;-145.18;100.00;46693.59;5032408;28;20456;-77
2022/11/22 00:31:23;;;;;;;18.63;7.67;;;;;;;-145.18;100.00;46689.69;5032392;28;20112;-77
2022/11/22 00:33:48;;;;;;;15.40;7.23;;;;;;;-145.18;100.00;46689.69;5032687;28;20096;-77
2022/11/22 00:36:16;;;;;;;16.20;8.17;;;;;;;-145.18;100.00;46685.78;5032499;28;20033;-78
2022/11/22 00:38:41;;;;;;;16.33;7.77;;;;;;;-145.18;100.00;46695.56;5032633;28;20041;-77
2022/11/22 00:41:07;;;;;;;23.97;7.60;;;;;;;-145.18;100.00;46703.38;5032052;28;20270;-77
2022/11/22 00:43:32;;;;;;;17.17;7.27;;;;;;;-145.18;100.00;46693.59;5032463;28;20064;-77
2022/11/22 00:45:58;;;;;;;19.70;7.43;;;;;;;-145.18;100.00;46685.78;5031702;28;20422;-77
2022/11/22 00:48:23;;;;;;;17.37;7.40;;;;;;;-145.18;100.00;46685.78;5032269;28;20067;-77
2022/11/22 00:50:49;;;;;;;16.93;6.87;;;;;;;-145.18;100.00;46687.75;5032079;28;20349;-77
2022/11/22 00:53:14;;;;;;;13.77;6.33;;;;;;;-145.18;100.00;46691.66;5032434;28;20145;-77
2022/11/22 00:55:40;;;;;;;16.83;5.97;;;;;;;-145.18;100.00;46689.69;5032243;28;20037;-76
2022/11/22 00:58:05;;;;;;;13.40;6.97;;;;;;;-145.18;100.00;46687.75;5031821;28;20529;-77
2022/11/22 01:00:30;;;;;;;23.57;6.50;;;;;;;-145.18;100.00;46689.69;5032118;28;20037;-76
2022/11/22 01:02:56;;;;;;;15.47;6.40;;;;;;;-145.18;100.00;46693.59;5031749;28;20112;-77
2022/11/22 01:05:21;;;;;;;17.27;7.20;;;;;;;-145.18;100.00;46689.69;5014221;28;20053;-77
2022/11/22 01:07:46;;;;;;;22.20;6.17;;;;;;;-145.18;100.00;46689.69;5031506;28;20478;-78
2022/11/22 01:10:12;;;;;;;21.10;5.90;;;;;;;-145.18;100.00;46685.78;5031720;28;20478;-77
2022/11/22 01:12:37;;;;;;;16.67;6.17;;;;;;;-145.18;100.00;46695.56;5031637;28;20080;-77
2022/11/22 01:15:04;;;;;;;19.23;6.43;;;;;;;-145.18;100.00;46693.59;5031578;28;20068;-78
2022/11/22 01:17:29;;;;;;;18.07;5.23;;;;;;;-145.18;100.00;46693.59;5014003;28;20041;-77
2022/11/22 01:19:54;;;;;;;15.73;4.90;;;;;;;-145.18;100.00;46703.38;5031772;28;20354;-77
2022/11/22 01:22:20;;;;;;;18.90;4.90;;;;;;;-145.18;100.00;46689.69;5013661;28;20037;-77
2022/11/22 01:24:45;;;;;;;12.40;5.00;;;;;;;-145.18;100.00;46701.41;5031674;28;20029;-77
2022/11/22 01:27:10;;;;;;;12.63;4.57;;;;;;;-145.18;100.00;46691.66;5031121;28;20041;-77
2022/11/22 01:29:36;;;;;;;17.30;4.70;;;;;;;-145.18;100.00;46695.56;5031475;28;20045;-77
2022/11/22 01:32:01;;;;;;;18.57;4.27;;;;;;;-145.18;100.00;46687.75;5030996;28;20029;-77
2022/11/22 01:34:27;;;;;;;23.87;5.63;;;;;;;-145.18;100.00;46691.66;5031662;28;20095;-77
2022/11/22 01:36:52;;;;;;;15.60;4.80;;;;;;;-145.18;100.00;46693.59;5031268;28;20061;-77
2022/11/22 01:39:17;;;;;;;23.67;6.13;;;;;;;-145.18;100.00;46685.78;5031486;28;20617;-77
2022/11/22 01:41:43;;;;;;;13.63;4.87;;;;;;;-145.18;100.00;46687.75;5031307;28;20056;-77
2022/11/22 01:44:26;;;;;;;12.67;4.37;;;;;;;-145.18;100.00;46687.75;5013206;28;20038;-77
2022/11/22 01:47:09;;;;;;;17.80;4.60;;;;;;;-145.18;100.00;46699.47;5012883;28;20026;-77
2022/11/22 01:49:36;;;;;;;18.03;4.17;;;;;;;-145.18;100.00;46687.75;5031279;28;20381;-77
2022/11/22 01:52:06;;;;;;;21.33;4.07;;;;;;;-145.18;100.00;46689.69;5030816;28;20306;-77
2022/11/22 01:54:34;;;;;;;16.83;4.70;;;;;;;-145.18;100.00;46701.41;5030691;28;20349;-77
2022/11/22 01:57:05;;;;;;;16.77;4.47;;;;;;;-145.18;100.00;46691.66;5030693;28;20325;-77
2022/11/22 01:59:34;;;;;;;21.30;4.80;;;;;;;-145.18;100.00;46693.59;5030946;28;20269;-77
2022/11/22 02:02:01;;;;;;;17.90;4.23;;;;;;;-145.18;100.00;46697.50;5012777;28;20317;-77
2022/11/22 02:04:29;;;;;;;18.87;3.90;;;;;;;-145.18;100.00;46699.47;5030446;28;20295;-78
2022/11/22 02:07:28;;;;;;;17.43;4.77;;;;;;;-145.18;100.00;46697.50;5030641;28;20321;-78
2022/11/22 02:09:53;;;;;;;24.63;4.27;;;;;;;-145.18;100.00;46693.59;4991413;28;20331;-77
2022/11/22 02:12:25;;;;;;;21.30;4.97;;;;;;;-145.18;100.00;46687.75;4973359;28;20351;-78
2022/11/22 02:14:52;;;;;;;17.77;4.20;;;;;;;-145.18;100.00;46687.75;4974147;28;20034;-77
2022/11/22 02:17:17;;;;;;;16.87;3.60;;;;;;;-145.18;100.00;46693.59;4991049;28;20275;-77
2022/11/22 02:19:48;;;;;;;23.03;3.70;;;;;;;-145.18;100.00;46689.69;4991314;28;20280;-77
2022/11/22 02:22:34;;;;;;;14.23;3.40;;;;;;;-145.18;100.00;46689.69;4991380;28;20122;-77
2022/11/22 02:25:24;;;;;;;22.20;4.00;;;;;;;-145.18;100.00;46691.66;4991349;28;20268;-77
2022/11/22 02:27:49;;;;;;;15.17;3.63;;;;;;;-145.18;100.00;46703.38;4990760;28;20256;-77
2022/11/22 02:30:15;;;;;;;27.70;5.20;;;;;;;-145.18;100.00;46697.50;4974045;28;20384;-77
2022/11/22 02:32:40;;;;;;;17.90;3.37;;;;;;;-145.18;100.00;46695.56;4990948;28;20026;-77
2022/11/22 02:35:24;;;;;;;34.13;5.53;;;;;;;-145.18;100.00;46693.59;4991063;28;20117;-77
2022/11/22 02:38:00;;;;;;;24.13;4.23;;;;;;;-145.18;100.00;46699.47;4990707;28;20483;-77
2022/11/22 02:40:28;;;;;;;28.75;5.80;;;;;;;-145.18;100.00;46697.50;4973827;28;20268;-77
2022/11/22 02:42:59;;;;;;;15.93;3.50;;;;;;;-145.18;100.00;46699.47;4990601;28;20033;-77
2022/11/22 02:45:25;;;;;;;19.17;3.37;;;;;;;-145.18;100.00;46703.38;4991285;28;20264;-77
2022/11/22 02:47:50;;;;;;;15.40;3.87;;;;;;;-145.18;100.00;46703.38;4990846;28;20275;-77
2022/11/22 02:50:15;;;;;;;14.47;3.20;;;;;;;-145.18;100.00;46699.47;4973578;28;20035;-77
2022/11/22 02:52:41;;;;;;;18.90;3.57;;;;;;;-145.18;100.00;46695.56;4990791;28;20081;-77
2022/11/22 02:55:07;;;;;;;19.57;3.23;;;;;;;-145.18;100.00;46693.59;4990963;28;20034;-77
2022/11/22 02:57:32;;;;;;;17.93;3.50;;;;;;;-145.18;100.00;46701.41;4973525;28;20054;-77
2022/11/22 02:59:57;;;;;;;25.70;3.93;;;;;;;-145.18;100.00;46693.59;4990946;28;20503;-77
2022/11/22 03:02:23;;;;;;;11.90;2.87;;;;;;;-145.18;100.00;46705.31;5356449;22;20421;-79
2022/11/22 03:04:48;;;;;;;22.33;3.97;;;;;;;-145.18;100.00;46695.56;5004047;28;20057;-79
2022/11/22 03:07:13;;;;;;;15.67;2.63;;;;;;;-145.18;100.00;46701.41;5029595;28;20077;-79
2022/11/22 03:09:39;;;;;;;22.40;3.67;;;;;;;-145.18;100.00;46709.22;5030049;28;20048;-79
2022/11/22 03:12:04;;;;;;;24.77;3.80;;;;;;;-145.18;100.00;46701.41;5027841;28;20378;-79
2022/11/22 03:14:30;;;;;;;17.17;2.60;;;;;;;-145.18;100.00;46697.50;5019437;28;20076;-79
2022/11/22 03:16:55;;;;;;;15.03;2.87;;;;;;;-145.18;100.00;46701.41;5029926;28;20030;-80
2022/11/22 03:19:20;;;;;;;21.67;4.00;;;;;;;-145.18;100.00;46701.41;5012737;28;20034;-80
2022/11/22 03:21:46;;;;;;;14.60;3.20;;;;;;;-145.18;100.00;46701.41;5030177;28;20542;-80
2022/11/22 03:24:11;;;;;;;16.87;4.37;;;;;;;-145.18;100.00;46711.19;5032934;28;20446;-80
2022/11/22 03:26:37;;;;;;;17.00;2.67;;;;;;;-145.18;100.00;46711.19;5034063;28;20033;-80
2022/11/22 03:29:03;;;;;;;22.57;3.70;;;;;;;-145.18;100.00;46705.31;5033554;28;20037;-80
2022/11/22 03:31:28;;;;;;;16.77;2.60;;;;;;;-145.18;100.00;46711.19;5016001;28;20036;-80
2022/11/22 03:33:54;;;;;;;17.07;2.40;;;;;;;-145.18;100.00;46705.31;5033426;28;20517;-80
2022/11/22 03:36:20;;;;;;;18.87;2.43;;;;;;;-145.18;100.00;46711.19;5033339;28;20033;-80
2022/11/22 03:38:45;;;;;;;12.13;2.87;;;;;;;-145.18;100.00;46711.19;5015814;28;20275;-79
2022/11/22 03:41:10;;;;;;;16.20;3.57;;;;;;;-145.18;100.00;46711.19;5015685;28;20035;-79
2022/11/22 03:43:36;;;;;;;22.57;2.53;;;;;;;-145.18;100.00;46713.13;5033768;28;20108;-77
2022/11/22 03:46:02;;;;;;;18.87;3.00;;;;;;;-145.18;100.00;46705.31;5015886;28;20083;-78
2022/11/22 03:48:27;;;;;;;11.47;2.40;;;;;;;-145.18;100.00;46709.22;5015716;28;20138;-77
2022/11/22 03:50:52;;;;;;;19.53;2.90;;;;;;;-145.18;100.00;46717.03;5033630;28;20083;-78
2022/11/22 03:53:18;;;;;;;19.20;3.53;;;;;;;-145.18;100.00;46711.19;5033071;28;20041;-78
2022/11/22 03:55:43;;;;;;;16.73;2.60;;;;;;;-145.18;100.00;46715.09;5033700;28;20041;-78
2022/11/22 03:58:08;;;;;;;15.67;2.87;;;;;;;-145.18;100.00;46703.38;5033039;28;20036;-78
2022/11/22 04:00:35;;;;;;;11.03;2.23;;;;;;;-145.18;100.00;46711.19;5015879;28;20025;-78
2022/11/22 04:03:00;;;;;;;18.00;2.77;;;;;;;-145.18;100.00;46703.38;5032839;28;20046;-77
2022/11/22 04:05:26;;;;;;;10.00;1.93;;;;;;;-145.18;100.00;46717.03;5015699;28;20274;-78
2022/11/22 04:07:57;;;;;;;21.47;4.43;;;;;;;-145.18;100.00;46705.31;5032587;28;20036;-78
2022/11/22 04:10:23;;;;;;;18.70;2.47;;;;;;;-145.18;100.00;46713.13;5013489;28;20030;-78
2022/11/22 04:12:49;;;;;;;27.57;3.17;;;;;;;-145.18;100.00;46709.22;5013097;28;20724;-80
2022/11/22 04:15:14;;;;;;;17.27;2.30;;;;;;;-145.18;100.00;46705.31;5013001;28;20346;-80
2022/11/22 04:17:46;;;;;;;14.57;2.23;;;;;;;-145.18;100.00;46701.41;5013340;28;20040;-79
2022/11/22 04:23:09;;;;;;;15.73;3.00;;;;;;;-145.18;100.00;46715.09;5012997;28;20278;-79
2022/11/22 04:25:38;;;;;;;19.03;2.40;;;;;;;-145.18;100.00;46715.09;5013198;28;20659;-80
2022/11/22 04:28:05;;;;;;;23.03;3.23;;;;;;;-145.18;100.00;46715.09;5012488;28;20275;-80
2022/11/22 04:33:16;;;;;;;16.20;2.30;;;;;;;-145.18;100.00;46715.09;5012689;28;20294;-79
2022/11/22 04:35:42;;;;;;;19.27;2.40;;;;;;;-145.18;100.00;46715.09;5012396;28;20643;-79
2022/11/22 04:38:08;;;;;;;16.07;2.47;;;;;;;-145.18;100.00;46713.13;4995141;28;20432;-78
2022/11/22 04:40:34;;;;;;;19.30;2.03;;;;;;;-145.18;100.00;46717.03;5012868;28;20366;-77
2022/11/22 04:45:44;;;;;;;14.93;2.03;;;;;;;-145.18;100.00;46719.00;5028707;28;20512;-80
2022/11/22 04:48:11;;;;;;;17.63;3.00;;;;;;;-145.18;100.00;46703.38;5014078;28;20266;-80
2022/11/22 04:53:21;;;;;;;14.20;2.57;;;;;;;-145.18;100.00;46713.13;5032360;28;20270;-79
2022/11/22 04:55:47;;;;;;;13.80;2.33;;;;;;;-145.18;100.00;46717.03;5032079;28;20267;-80
2022/11/22 04:58:12;;;;;;;21.73;3.70;;;;;;;-145.18;100.00;46717.03;5031636;28;20404;-81
2022/11/22 05:00:38;;;;;;;20.30;2.40;;;;;;;-145.18;100.00;46719.00;5031027;28;20047;-80
2022/11/22 05:03:04;;;;;;;14.30;2.37;;;;;;;-145.18;100.00;46715.09;5022797;28;20045;-80
2022/11/22 05:05:33;;;;;;;10.23;1.90;;;;;;;-145.18;100.00;46711.19;5021958;28;20038;-80
2022/11/22 05:07:58;;;;;;;12.30;2.77;;;;;;;-145.18;100.00;46713.13;5025541;28;20262;-80
2022/11/22 05:10:23;;;;;;;14.43;2.07;;;;;;;-145.18;100.00;46717.03;5025674;28;20322;-78
2022/11/22 05:12:49;;;;;;;17.00;3.73;;;;;;;-145.18;100.00;46717.03;5021806;28;20141;-80
2022/11/22 05:15:14;;;;;;;14.13;2.63;;;;;;;-145.18;100.00;46719.00;5027985;28;20083;-80
2022/11/22 05:17:39;;;;;;;21.10;4.40;;;;;;;-145.18;100.00;46719.00;5025311;28;20033;-79
2022/11/22 05:20:06;;;;;;;12.37;2.50;;;;;;;-145.18;100.00;46717.03;5023951;28;20063;-80
2022/11/22 05:25:16;;;;;;;23.27;3.40;;;;;;;-145.18;100.00;46713.13;5024935;28;20312;-80
2022/11/22 05:27:41;;;;;;;18.27;3.83;;;;;;;-145.18;100.00;46719.00;5031140;28;20266;-79
2022/11/22 05:30:07;;;;;;;20.37;2.70;;;;;;;-145.18;100.00;46719.00;5031017;28;20597;-80
2022/11/22 05:32:32;;;;;;;16.00;2.50;;;;;;;-145.18;100.00;46715.09;5030717;28;20026;-79
2022/11/22 05:34:58;;;;;;;12.93;2.57;;;;;;;-145.18;100.00;46720.94;5030993;28;20029;-80
2022/11/22 05:37:24;;;;;;;16.40;3.23;;;;;;;-145.18;100.00;46715.09;5026306;28;20103;-80
2022/11/22 05:39:50;;;;;;;10.83;2.40;;;;;;;-145.18;100.00;46717.03;5019606;28;20438;-80
2022/11/22 05:42:15;;;;;;;21.87;3.40;;;;;;;-145.18;100.00;46713.13;5020099;28;20025;-80
2022/11/22 05:44:41;;;;;;;19.17;3.67;;;;;;;-145.18;100.00;46720.94;5021888;28;20060;-80
2022/11/22 05:47:06;;;;;;;21.50;2.70;;;;;;;-145.18;100.00;46707.28;5035348;28;20096;-80
2022/11/22 05:49:32;;;;;;;19.23;2.50;;;;;;;-145.18;100.00;46720.94;5030173;28;20029;-80
2022/11/22 05:51:57;;;;;;;16.97;3.37;;;;;;;-145.18;100.00;46719.00;5019999;28;20026;-79
2022/11/22 05:54:23;;;;;;;13.63;2.67;;;;;;;-145.18;100.00;46717.03;5038752;28;20029;-80
2022/11/22 05:56:48;;;;;;;16.57;2.47;;;;;;;-145.18;100.00;46715.09;5032353;28;20032;-80
2022/11/22 05:59:14;;;;;;;16.07;2.93;;;;;;;-145.18;100.00;46717.03;5050143;28;20029;-80
2022/11/22 06:01:39;;;;;;;11.53;2.20;;;;;;;-145.18;100.00;46717.03;5050191;28;20487;-79
2022/11/22 06:04:05;;;;;;;16.17;2.70;;;;;;;-145.18;100.00;46719.00;5049677;28;20408;-79
2022/11/22 06:06:30;;;;;;;17.87;3.07;;;;;;;-145.18;100.00;46719.00;5033034;28;20037;-79
2022/11/22 06:08:57;;;;;;;12.50;3.17;;;;;;;-145.18;100.00;46717.03;5016052;28;20041;-79
2022/11/22 06:11:25;;;;;;;16.30;2.90;;;;;;;-145.18;100.00;46715.09;5050723;28;20436;-80
2022/11/22 06:13:56;;;;;;;12.63;2.73;;;;;;;-145.18;100.00;46720.94;5050634;28;20270;-79
2022/11/22 06:16:22;;;;;;;12.63;3.03;;;;;;;-145.18;100.00;46719.00;5032636;28;20320;-79
2022/11/22 06:18:48;;;;;;;13.77;2.83;;;;;;;-145.18;100.00;46717.03;5050494;28;20273;-79
2022/11/22 06:21:22;;;;;;;8.83;2.27;;;;;;;-145.18;100.00;46711.19;5050441;28;20631;-79
2022/11/22 06:23:48;;;;;;;15.23;2.90;;;;;;;-145.18;100.00;46715.09;5050407;28;20028;-79
2022/11/22 06:26:16;;;;;;;9.77;2.30;;;;;;;-145.18;100.00;46717.03;5050193;28;20644;-79
2022/11/22 06:28:43;;;;;;;14.20;2.83;;;;;;;-145.18;100.00;46717.03;5050083;28;20268;-79
2022/11/22 06:31:11;;;;;;;16.70;2.77;;;;;;;-145.18;100.00;46719.00;5050536;28;20270;-79
2022/11/22 06:33:37;;;;;;;17.00;2.40;;;;;;;-145.18;100.00;46719.00;5050553;28;20727;-80
2022/11/22 06:36:12;;;;;;;16.17;2.67;;;;;;;-145.18;100.00;46720.94;5050333;28;20270;-79
2022/11/22 06:38:39;;;;;;;7.18;2.45;;;;;;;-145.18;100.00;46719.00;5030396;28;20290;-79
2022/11/22 06:41:10;;;;;;;10.80;2.07;;;;;;;-145.18;100.00;46722.91;5029875;28;20032;-80
2022/11/22 06:43:37;;;;;;;7.90;2.50;;;;;;;-145.18;100.00;46719.00;5030182;28;20332;-80
2022/11/22 06:46:04;;;;;;;18.13;3.03;;;;;;;-145.18;100.00;46724.84;5031968;28;20263;-79
2022/11/22 06:48:34;;;;;;;15.47;3.00;;;;;;;-145.18;100.00;46720.94;5050204;28;20273;-79
2022/11/22 06:51:10;;;;;;;15.27;2.50;;;;;;;-145.18;100.00;46719.00;5048422;28;20282;-78
2022/11/22 06:53:35;;;;;;;;;;;;;;;-145.18;100.00;46722.91;5050241;28;20629;-77
2022/11/22 06:56:02;;;;;;;10.38;2.22;;;;;;;-145.18;100.00;46719.00;5050091;28;19919;-78
2022/11/22 06:58:28;;;;;;;13.13;2.83;;;;;;;-145.18;100.00;46717.03;5052446;28;20119;-78
2022/11/22 07:00:59;;;;;;;19.47;3.10;;;;;;;-145.18;100.00;46724.84;5054271;28;20404;-78
2022/11/22 07:03:24;;;;;;;14.10;2.03;;;;;;;-145.18;100.00;46720.94;5053655;28;20669;-78
2022/11/22 07:05:50;;;;;;;14.67;3.90;;;;;;;-145.18;100.00;46717.03;5054075;28;20344;-78
2022/11/22 07:08:16;;;;;;;14.13;3.00;;;;;;;-145.18;100.00;46722.91;5052708;28;20025;-78
2022/11/22 07:10:41;;;;;;;12.43;2.57;;;;;;;-145.18;100.00;46722.91;5034038;28;20646;-78
2022/11/22 07:13:06;;;;;;;15.47;2.80;;;;;;;-145.18;100.00;46719.00;5031786;28;20055;-78
2022/11/22 07:15:32;;;;;;;12.17;2.80;;;;;;;-145.18;100.00;46719.00;5016159;28;20057;-78
2022/11/22 07:17:58;;;;;;;13.17;2.80;;;;;;;-145.18;100.00;46722.91;5033891;28;20065;-78
2022/11/22 07:20:23;;;;;;;13.57;3.13;;;;;;;-145.18;100.00;46720.94;5033980;28;20033;-78
2022/11/22 07:22:48;;;;;;;18.10;2.63;;;;;;;-145.18;100.00;46722.91;5033692;28;20120;-78
2022/11/22 07:25:14;;;;;;;13.27;3.10;;;;;;;-145.18;100.00;46719.00;5034690;28;20190;-77
2022/11/22 07:27:39;;;;;;;17.37;2.53;;;;;;;-145.18;100.00;46720.94;5045040;28;20041;-77
2022/11/22 07:30:05;;;;;;;9.90;2.47;;;;;;;-145.18;100.00;46719.00;5052791;28;20037;-77
2022/11/22 07:32:30;;;;;;;12.97;3.13;;;;;;;-145.18;100.00;46719.00;5035940;28;20044;-77
2022/11/22 07:34:56;;;;;;;17.20;3.80;;;;;;;-145.18;100.00;46724.84;5035565;28;20277;-77
2022/11/22 07:37:21;;;;;;;12.43;3.30;;;;;;;-145.18;100.00;46724.84;5053323;28;20041;-77
2022/11/22 07:39:46;;;;;;;12.87;2.90;;;;;;;-145.18;100.00;46726.81;5053485;28;20115;-77
2022/11/22 07:42:12;;;;;;;11.10;3.00;;;;;;;-145.18;100.00;46719.00;5035470;28;20056;-77
2022/11/22 07:44:37;;;;;;;9.57;2.80;;;;;;;-145.18;100.00;46722.91;5053339;28;20484;-77
2022/11/22 07:47:03;;;;;;;11.00;3.40;;;;;;;-145.18;100.00;46720.94;5053065;28;20044;-77
2022/11/22 07:49:28;;;;;;;10.50;2.90;;;;;;;-145.18;100.00;46719.00;5053329;28;20424;-77
2022/11/22 07:51:53;;;;;;;11.87;4.17;;;;;;;-145.18;100.00;46722.91;5053179;28;20123;-77
2022/11/22 07:54:19;;;;;;;18.07;3.37;;;;;;;-145.18;100.00;46722.91;5038398;28;20095;-77
2022/11/22 07:56:44;;;;;;;15.23;3.90;;;;;;;-145.18;100.00;46724.84;5035322;28;20037;-77
2022/11/22 07:59:10;;;;;;;11.30;3.30;;;;;;;-145.18;100.00;46719.00;5052907;28;20489;-77
2022/11/22 08:01:35;;;;;;;13.50;4.13;;;;;;;-145.18;100.00;46717.03;5053169;28;20120;-77
2022/11/22 08:04:00;;;;;;;12.53;3.43;;;;;;;-145.18;100.00;46720.94;5052550;28;20075;-77
2022/11/22 08:06:26;;;;;;;14.73;3.93;;;;;;;-145.18;100.00;46719.00;5053115;28;20106;-77
2022/11/22 08:08:51;;;;;;;17.47;3.93;;;;;;;-145.18;100.00;46720.94;5034114;28;20398;-77
2022/11/22 08:11:16;;;;;;;16.07;3.67;;;;;;;-145.18;100.00;46719.00;5052620;28;20033;-79
2022/11/22 08:13:43;;;;;;;13.60;3.47;;;;;;;-145.18;100.00;46713.13;5035203;28;20051;-79
2022/11/22 08:16:11;;;;;;;13.83;3.97;;;;;;;-145.18;100.00;46719.00;5052888;28;20108;-79
2022/11/22 08:18:38;;;;;;;18.10;3.63;;;;;;;-145.18;100.00;46720.94;5034584;28;20282;-79
2022/11/22 08:21:06;;;;;;;12.67;3.50;;;;;;;-145.18;100.00;46720.94;5052579;28;20361;-79
2022/11/22 08:23:31;;;;;;;9.37;3.40;;;;;;;-145.18;100.00;46722.91;5052435;28;20825;-79
2022/11/22 08:25:58;;;;;;;10.53;2.60;;;;;;;-145.18;100.00;46720.94;5052876;28;20345;-79
2022/11/22 08:28:23;;;;;;;12.23;3.47;;;;;;;-145.18;100.00;46720.94;5052301;28;20114;-79
2022/11/22 08:30:49;;;;;;;18.23;3.97;;;;;;;-145.18;100.00;46719.00;5034609;28;20381;-79
2022/11/22 08:33:14;;;;;;;15.53;4.10;;;;;;;-145.18;100.00;46720.94;5052397;28;20108;-79
2022/11/22 08:35:39;;;;;;;11.67;3.80;;;;;;;-145.18;100.00;46726.81;5052614;28;20036;-79
2022/11/22 08:38:04;;;;;;;8.20;3.00;;;;;;;-145.18;100.00;46722.91;5034472;28;20029;-79
2022/11/22 08:40:30;;;;;;;12.77;2.90;;;;;;;-145.18;100.00;46720.94;5052466;28;20033;-79
2022/11/22 08:42:55;;;;;;;11.37;3.53;;;;;;;-145.18;100.00;46719.00;5052406;28;20033;-79
2022/11/22 08:45:21;;;;;;;7.37;3.03;;;;;;;-145.18;100.00;46717.03;5052103;28;20025;-79
2022/11/22 08:47:47;;;;;;;9.60;2.80;;;;;;;-145.18;100.00;46720.94;5034791;28;20033;-79
2022/11/22 08:50:13;;;;;;;11.43;3.27;;;;;;;-145.18;100.00;46722.91;5052001;28;20517;-79
2022/11/22 08:52:39;;;;;;;14.70;3.77;;;;;;;-145.18;100.00;46720.94;5052386;28;20262;-79
2022/11/22 08:55:04;;;;;;;19.90;2.97;;;;;;;-145.18;100.00;46720.94;5034129;28;20400;-79
2022/11/22 08:57:30;;;;;;;5.80;2.50;;;;;;;-145.18;100.00;46720.94;5040837;28;20489;-79
2022/11/22 08:59:55;;;;;;;16.83;3.30;;;;;;;-145.18;100.00;46719.00;5032435;28;20540;-79
2022/11/22 09:02:20;;;;;;;19.87;3.13;;;;;;;-145.18;100.00;46720.94;5014169;28;20499;-79
2022/11/22 09:04:46;;;;;;;13.23;3.10;;;;;;;-145.18;100.00;46717.03;5031861;28;20391;-79
2022/11/22 09:07:11;;;;;;;15.00;2.90;;;;;;;-145.18;100.00;46715.09;5031874;28;20076;-79
2022/11/22 09:09:36;;;;;;;8.00;2.40;;;;;;;-145.18;100.00;46719.00;5031633;28;20037;-79
2022/11/22 09:12:02;;;;;;;19.27;3.90;;;;;;;-145.18;100.00;46722.91;5031860;28;20120;-79
2022/11/22 09:14:27;;;;;;;13.57;3.47;;;;;;;-145.18;100.00;46717.03;5031812;28;20513;-79
2022/11/22 09:16:52;;;;;;;10.13;3.23;;;;;;;-145.18;100.00;46720.94;5031870;28;20588;-79
2022/11/22 09:19:18;;;;;;;6.97;3.13;;;;;;;-145.18;100.00;46724.84;5013644;28;20082;-79
2022/11/22 09:21:43;;;;;;;7.37;2.97;;;;;;;-145.18;100.00;46722.91;5022860;28;20119;-79
2022/11/22 09:24:08;;;;;;;12.27;2.80;;;;;;;-145.18;100.00;46717.03;5043230;28;20069;-79
2022/11/22 09:26:34;;;;;;;17.47;3.70;;;;;;;-145.18;100.00;46715.09;5042966;28;20120;-79
2022/11/22 09:28:59;;;;;;;9.47;3.27;;;;;;;-145.18;100.00;46717.03;5027348;28;20075;-79
2022/11/22 09:31:25;;;;;;;14.73;3.70;;;;;;;-145.18;100.00;46722.91;5043384;28;20069;-79
2022/11/22 09:33:50;;;;;;;10.83;3.27;;;;;;;-145.18;100.00;46719.00;5034817;28;20084;-79
2022/11/22 09:36:18;;;;;;;12.83;2.83;;;;;;;-145.18;100.00;46719.00;5013901;28;20029;-79
2022/11/22 09:38:44;;;;;;;15.17;3.00;;;;;;;-145.18;100.00;46715.09;5031151;28;20039;-79
2022/11/22 09:41:15;;;;;;;17.23;3.53;;;;;;;-145.18;100.00;46715.09;5031675;28;20361;-79
2022/11/22 09:43:47;;;;;;;10.57;3.33;;;;;;;-145.18;100.00;46715.09;5031029;28;20279;-78
2022/11/22 09:46:48;;;;;;;10.17;3.03;;;;;;;-145.18;100.00;46715.09;5031204;28;20275;-80
2022/11/22 09:49:28;;;;;;;7.57;2.57;;;;;;;-145.18;100.00;46713.13;4999817;28;20294;-80
2022/11/22 09:52:01;;;;;;;7.80;3.30;;;;;;;-145.18;100.00;46715.09;5030246;28;20266;-80
2022/11/22 09:54:33;;;;;;;11.27;3.00;;;;;;;-145.18;100.00;46717.03;5031291;28;20297;-80
2022/11/22 09:57:03;;;;;;;11.47;2.43;;;;;;;-145.18;100.00;46711.19;5030963;28;20267;-80
2022/11/22 09:59:34;;;;;;;10.27;2.70;;;;;;;-145.18;100.00;46715.09;5031166;28;20791;-80
2022/11/22 10:02:04;;;;;;;10.07;2.80;;;;;;;-145.18;100.00;46711.19;5031179;28;20289;-80
2022/11/22 10:04:39;;;;;;;10.40;3.37;;;;;;;-145.18;100.00;46713.13;5030726;28;20766;-80
2022/11/22 10:07:13;;;;;;;13.63;3.13;;;;;;;-145.18;100.00;46713.13;5030929;28;20274;-80
2022/11/22 10:09:55;;;;;;;8.33;2.50;;;;;;;-145.18;100.00;46715.09;5012743;28;20446;-80
2022/11/22 10:12:28;;;;;;;11.53;2.57;;;;;;;-145.18;100.00;46713.13;5030680;28;20650;-80
2022/11/22 10:15:03;;;;;;;9.77;2.30;;;;;;;-145.18;100.00;46715.09;5030777;28;20263;-80
2022/11/22 10:17:55;;;;;;;15.43;4.50;;;;;;;-145.18;100.00;46713.13;5013170;28;20827;-80
2022/11/22 10:20:23;;;;;;;10.43;2.13;;;;;;;-145.18;100.00;46709.22;5030482;28;20375;-80
2022/11/22 10:22:49;;;;;;;13.03;2.50;;;;;;;-145.18;100.00;46715.09;5030845;28;20262;-80
2022/11/22 10:25:30;;;;;;;11.10;2.43;;;;;;;-145.18;100.00;46713.13;5030272;28;20270;-80
2022/11/22 10:28:01;;;;;;;11.97;2.80;;;;;;;-145.18;100.00;46713.13;5030682;28;20258;-80
2022/11/22 10:30:37;;;;;;;10.90;3.57;;;;;;;-145.18;100.00;46711.19;5030431;28;20955;-80
2022/11/22 10:33:19;;;;;;;8.60;2.80;;;;;;;-145.18;100.00;46711.19;5030176;28;20259;-80
2022/11/22 10:35:52;;;;;;;9.33;2.57;;;;;;;-145.18;100.00;46711.19;5030664;28;20741;-80
2022/11/22 10:38:36;;;;;;;9.43;2.80;;;;;;;-145.18;100.00;46713.13;5030173;28;20267;-80
2022/11/22 10:41:04;;;;;;;9.50;2.17;;;;;;;-145.18;100.00;46709.22;5030572;28;20278;-80
2022/11/22 10:43:45;;;;;;;10.93;3.37;;;;;;;-145.18;100.00;46707.28;5030367;28;20285;-80
2022/11/22 10:46:45;;;;;;;8.07;2.30;;;;;;;-145.18;100.00;46703.38;5030475;28;20651;-80
2022/11/22 10:49:36;;;;;;;8.10;2.77;;;;;;;-145.18;100.00;46703.38;5012448;28;20297;-80
2022/11/22 10:52:14;;;;;;;10.43;2.23;;;;;;;-145.18;100.00;46709.22;5012834;28;20281;-80
2022/11/22 10:54:48;;;;;;;8.13;3.03;;;;;;;-145.18;100.00;46705.31;5030455;28;20277;-80
2022/11/22 10:57:34;;;;;;;7.10;2.60;;;;;;;-145.18;100.00;46709.22;5030275;28;20254;-80
2022/11/22 11:00:00;;;;;;;10.07;2.30;;;;;;;-145.18;100.00;46709.22;5030218;28;20658;-80
2022/11/22 11:02:34;;;;;;;16.73;3.30;;;;;;;-145.18;100.00;46703.38;5030367;28;20267;-80
2022/11/22 11:05:05;;;;;;;7.50;2.43;;;;;;;-145.18;100.00;46705.31;5029911;28;20052;-80
2022/11/22 11:07:31;;;;;;;9.90;2.40;;;;;;;-145.18;100.00;46703.38;5030385;28;20505;-80
2022/11/22 11:10:02;;;;;;;8.93;2.87;;;;;;;-145.18;100.00;46711.19;5029966;28;20298;-80
2022/11/22 11:12:41;;;;;;;5.77;2.23;;;;;;;-145.18;100.00;46707.28;5030379;28;20103;-80
2022/11/22 11:15:21;;;;;;;13.00;2.33;;;;;;;-145.18;100.00;46709.22;5029984;28;20720;-80
2022/11/22 11:17:54;;;;;;;8.87;2.70;;;;;;;-145.18;100.00;46707.28;5030260;28;20266;-80
2022/11/22 11:20:31;;;;;;;8.03;2.40;;;;;;;-145.18;100.00;46703.38;5028844;28;20258;-80